Arthur, Nevada
Current Conditions -  °F | °C
As of 9:55 PM on Saturday 25 Oct 2014 (Local Time) from KENV Reporting Station
Clear Clear  
Wind Chill: 64°   Ceiling: Unl
Heat Index: 64°   Visibility: 10mi
Dew Point: 32°   Wind: 20mph
Humidity: 30%   Direction: 210°SSW
Pressure: 29.88"   Gusts: 24mph
Location:  41.0114°N, 114.57°W
Report Text: KENV 260455Z AUTO 21017G21KT 10SM CLR 18/00 A2988 RMK AO1
Loading
Personal Weather Stations






























Interactive Weather Map
Tropical Storm Tracking
New forecast layout! Learn more

10-Day Weather Forecast

Advertisements
Track Severe Weather on mobile